createdAt,value
2023-03-06T00:00:05.095Z,11.4
2023-03-06T00:05:05.103Z,11.1
2023-03-06T00:10:05.101Z,10.9
2023-03-06T00:15:05.747Z,11.4
2023-03-06T00:20:05.102Z,11.3
2023-03-06T00:25:05.122Z,11.3
2023-03-06T00:30:05.101Z,11.8
2023-03-06T00:35:05.103Z,11.6
2023-03-06T00:40:05.100Z,11.4
2023-03-06T00:45:05.105Z,11.2
2023-03-06T00:50:05.121Z,12
2023-03-06T00:55:05.103Z,12
2023-03-06T01:00:05.097Z,11.8
2023-03-06T01:05:05.144Z,11.1
2023-03-06T01:10:05.141Z,11.3
2023-03-06T01:15:05.098Z,11.5
2023-03-06T01:20:05.093Z,11.6
2023-03-06T01:25:05.089Z,11.6
2023-03-06T01:30:05.092Z,11.9
2023-03-06T01:35:05.097Z,11.6
2023-03-06T01:40:05.098Z,11.7
2023-03-06T01:45:05.102Z,12.1
2023-03-06T01:50:05.091Z,11.6
2023-03-06T01:55:05.100Z,11.6
2023-03-06T02:00:05.107Z,11.7
2023-03-06T02:05:05.096Z,11.7
2023-03-06T02:10:05.106Z,12.3
2023-03-06T02:15:05.098Z,11.8
2023-03-06T02:20:05.096Z,12.1
2023-03-06T02:25:05.106Z,12.1
2023-03-06T02:30:05.097Z,11.4
2023-03-06T02:35:05.103Z,12.1
2023-03-06T02:40:05.115Z,11.6
2023-03-06T02:45:05.115Z,12.3
2023-03-06T02:50:05.096Z,11.7
2023-03-06T02:55:05.106Z,11.7
2023-03-06T03:00:05.097Z,12
2023-03-06T03:05:05.112Z,12.2
2023-03-06T03:10:05.103Z,11.5
2023-03-06T03:15:05.100Z,12.2
2023-03-06T03:20:05.090Z,11.9
2023-03-06T03:25:05.093Z,11.9
2023-03-06T03:30:05.109Z,12
2023-03-06T03:35:05.103Z,13.1
2023-03-06T03:40:05.119Z,12.2
2023-03-06T03:45:05.104Z,11.9
2023-03-06T03:50:05.099Z,12.7
2023-03-06T03:55:05.103Z,12.7
2023-03-06T04:00:05.104Z,12.9
2023-03-06T04:05:05.183Z,12.3
2023-03-06T04:10:05.091Z,12.7
2023-03-06T04:15:05.098Z,12.6
2023-03-06T04:20:05.113Z,13.5
2023-03-06T04:25:05.106Z,13.5
2023-03-06T04:30:05.103Z,13.9
2023-03-06T04:35:05.110Z,13.3
2023-03-06T04:40:05.106Z,13.7
2023-03-06T04:45:05.105Z,13.6
2023-03-06T04:50:05.102Z,15.1
2023-03-06T04:55:05.100Z,15.1
2023-03-06T05:00:05.100Z,15
2023-03-06T05:05:05.094Z,15.1
2023-03-06T05:10:05.090Z,15.5
2023-03-06T05:15:05.099Z,15.7
2023-03-06T05:20:05.098Z,16.1
2023-03-06T05:25:05.106Z,16.1
2023-03-06T05:30:05.091Z,15.6
2023-03-06T05:35:05.100Z,16.8
2023-03-06T05:40:05.109Z,17
2023-03-06T05:45:05.138Z,16.9
2023-03-06T05:50:05.132Z,16
2023-03-06T05:55:05.125Z,16
2023-03-06T06:00:05.131Z,15.3
2023-03-06T06:05:05.121Z,15
2023-03-06T06:10:05.108Z,14.5
2023-03-06T06:15:05.106Z,14.2
2023-03-06T06:20:05.163Z,13.8
2023-03-06T06:25:05.124Z,13.8
2023-03-06T06:30:05.113Z,13.9
2023-03-06T06:35:05.133Z,14.4
2023-03-06T06:40:05.106Z,14.9
2023-03-06T06:45:05.114Z,15.2
2023-03-06T06:50:05.288Z,16
2023-03-06T06:55:05.122Z,16
2023-03-06T07:00:05.135Z,15.8
2023-03-06T07:05:05.690Z,15.5
2023-03-06T07:10:05.236Z,15.9
2023-03-06T07:15:05.139Z,15.2
2023-03-06T07:20:05.110Z,15.8
2023-03-06T07:25:05.128Z,15.8
2023-03-06T07:30:05.117Z,15.7
2023-03-06T07:35:19.263Z,14.7
2023-03-06T07:40:05.153Z,15.8
2023-03-06T07:45:05.116Z,15.9
2023-03-06T07:50:05.114Z,15.1
2023-03-06T07:55:05.127Z,15.1
2023-03-06T08:00:05.110Z,15.2
2023-03-06T08:05:05.115Z,15.5
2023-03-06T08:10:05.113Z,15.8
2023-03-06T08:15:05.128Z,16.9
2023-03-06T08:20:05.095Z,16.4
2023-03-06T08:25:05.105Z,16.4
2023-03-06T08:30:05.090Z,15
2023-03-06T08:35:05.098Z,15.8
2023-03-06T08:40:05.096Z,16.3
2023-03-06T08:45:05.169Z,16.4
2023-03-06T08:50:05.087Z,16.5
2023-03-06T08:55:05.095Z,16.5
2023-03-06T09:00:05.088Z,16.1
2023-03-06T09:05:05.108Z,16.9
2023-03-06T09:10:05.095Z,15.9
2023-03-06T09:15:05.149Z,16
2023-03-06T09:20:05.097Z,15.9
2023-03-06T09:25:05.109Z,15.9
2023-03-06T09:30:05.107Z,16.2
2023-03-06T09:35:05.155Z,16.3
2023-03-06T09:40:05.113Z,16.6
2023-03-06T09:45:05.197Z,16
2023-03-06T09:50:05.091Z,13.9
2023-03-06T09:55:05.185Z,13.9
2023-03-06T10:00:05.087Z,16.3
2023-03-06T10:05:05.229Z,16.2
2023-03-06T10:10:05.091Z,15.4
2023-03-06T10:15:05.137Z,14.8
2023-03-06T10:20:05.089Z,15.4
2023-03-06T10:25:05.104Z,15.4
2023-03-06T10:30:05.095Z,14.2
2023-03-06T10:35:05.095Z,14.3
2023-03-06T10:40:05.106Z,15.2
2023-03-06T10:45:05.091Z,15
2023-03-06T10:50:07.292Z,15
2023-03-06T10:55:05.101Z,15
2023-03-06T11:00:05.108Z,14.2
2023-03-06T11:05:05.102Z,15.3
2023-03-06T11:10:05.114Z,15.2
2023-03-06T11:15:05.100Z,15.3
2023-03-06T11:20:05.092Z,15.3
2023-03-06T11:25:05.103Z,15.3
2023-03-06T11:30:05.093Z,14.4
2023-03-06T11:35:05.105Z,14.9
2023-03-06T11:40:05.090Z,14.7
2023-03-06T11:45:05.108Z,14.7
2023-03-06T11:50:05.103Z,14.7
2023-03-06T11:55:05.107Z,14.7
2023-03-06T12:00:05.104Z,15.3
2023-03-06T12:05:05.284Z,15.4
2023-03-06T12:15:05.103Z,13
2023-03-06T12:20:05.101Z,11.8
2023-03-06T12:25:05.120Z,11.8
2023-03-06T12:30:05.098Z,12.2
2023-03-06T12:35:06.137Z,12.6
2023-03-06T12:40:05.093Z,13.4
2023-03-06T12:45:05.105Z,13.9
2023-03-06T12:50:05.110Z,14.5
2023-03-06T12:55:05.104Z,14.5
2023-03-06T13:00:05.105Z,15.1
2023-03-06T13:05:05.120Z,15.2
2023-03-06T13:10:05.101Z,17
2023-03-06T13:15:05.098Z,15.4
2023-03-06T13:20:05.101Z,15.3
2023-03-06T13:25:08.412Z,15.3
2023-03-06T13:30:05.122Z,14.9
2023-03-06T13:35:05.104Z,15.4
2023-03-06T13:40:05.104Z,15.8
2023-03-06T13:45:05.158Z,15.3
2023-03-06T13:50:05.099Z,14.8
2023-03-06T13:55:05.106Z,14.8
2023-03-06T14:00:09.162Z,14.4
2023-03-06T14:05:05.102Z,15
2023-03-06T14:10:05.099Z,13.9
2023-03-06T14:15:05.096Z,14.5
2023-03-06T14:20:05.091Z,13.9
2023-03-06T14:25:05.097Z,13.9
2023-03-06T14:30:05.089Z,14.1
2023-03-06T14:35:05.110Z,14.1
2023-03-06T14:40:05.098Z,14.2
2023-03-06T14:45:05.112Z,14.3
2023-03-06T14:50:05.096Z,13.7
2023-03-06T14:55:05.101Z,13.7
2023-03-06T15:00:05.094Z,14.1
2023-03-06T15:05:05.091Z,14.2
2023-03-06T15:10:05.099Z,14.2
2023-03-06T15:15:05.101Z,14.3
2023-03-06T15:20:05.089Z,17.6
2023-03-06T15:25:05.108Z,17.6
2023-03-06T15:30:05.100Z,18.5
2023-03-06T15:35:05.107Z,18.1
2023-03-06T15:40:05.209Z,17.7
2023-03-06T15:45:05.107Z,14.8
2023-03-06T15:50:05.134Z,15.2
2023-03-06T15:55:05.109Z,15.2
2023-03-06T16:00:06.446Z,14.9
2023-03-06T16:05:05.130Z,16.2
2023-03-06T16:10:05.185Z,14
2023-03-06T16:15:05.113Z,15
2023-03-06T16:20:05.116Z,15.8
2023-03-06T16:25:05.112Z,15.8
2023-03-06T16:30:05.124Z,14.7
2023-03-06T16:35:05.101Z,15.5
2023-03-06T16:40:05.100Z,15.1
2023-03-06T16:45:05.106Z,14.8
2023-03-06T16:50:05.166Z,15.1
2023-03-06T16:55:05.113Z,15.1
2023-03-06T17:00:05.099Z,16.1
2023-03-06T17:05:05.100Z,15.6
2023-03-06T17:10:05.111Z,15.1
2023-03-06T17:15:05.096Z,14.5
2023-03-06T17:20:05.101Z,14.6
2023-03-06T17:25:05.155Z,14.6
2023-03-06T17:30:05.101Z,15.2
2023-03-06T17:35:05.115Z,15.5
2023-03-06T17:40:05.104Z,15.6
2023-03-06T17:45:05.106Z,15.9
2023-03-06T17:50:05.098Z,16.1
2023-03-06T17:55:05.089Z,16.1
2023-03-06T18:00:05.090Z,16.4
2023-03-06T18:05:05.146Z,15.6
2023-03-06T18:10:05.088Z,14.9
2023-03-06T18:15:05.089Z,14.8
2023-03-06T18:20:05.088Z,16.5
2023-03-06T18:25:05.099Z,16.5
2023-03-06T18:30:05.103Z,16.1
2023-03-06T18:35:05.095Z,16
2023-03-06T18:40:05.101Z,16.7
2023-03-06T18:45:05.096Z,16.3
2023-03-06T18:50:05.105Z,16.6
2023-03-06T18:55:05.097Z,16.6
2023-03-06T19:00:05.088Z,16.8
2023-03-06T19:05:05.103Z,16.4
2023-03-06T19:10:05.103Z,16.6
2023-03-06T19:15:05.112Z,16.7
2023-03-06T19:20:05.092Z,16.3
2023-03-06T19:25:05.113Z,16.3
2023-03-06T19:30:05.100Z,16.6
2023-03-06T19:35:05.155Z,16.4
2023-03-06T19:40:05.100Z,17
2023-03-06T19:45:05.107Z,17.5
2023-03-06T19:50:05.111Z,17.2
2023-03-06T19:55:05.106Z,17.2
2023-03-06T20:00:05.118Z,17.8
2023-03-06T20:05:06.080Z,17.5
2023-03-06T20:10:05.118Z,17.8
2023-03-06T20:15:05.103Z,18.3
2023-03-06T20:20:05.115Z,18.6
2023-03-06T20:25:05.114Z,18.6
2023-03-06T20:30:07.617Z,18.1
2023-03-06T20:35:05.155Z,16.9
2023-03-06T20:40:05.114Z,17.1
2023-03-06T20:45:05.091Z,16.9
2023-03-06T20:50:05.090Z,17.4
2023-03-06T20:55:05.137Z,17.4
2023-03-06T21:00:05.096Z,16.6
2023-03-06T21:05:05.130Z,17.2
2023-03-06T21:10:05.103Z,16.8
2023-03-06T21:15:05.173Z,16.6
2023-03-06T21:20:05.093Z,17.3
2023-03-06T21:25:05.110Z,17.3
2023-03-06T21:30:05.104Z,17.4
2023-03-06T21:35:05.101Z,18.4
2023-03-06T21:40:05.108Z,17.9
2023-03-06T21:45:05.109Z,17.4
2023-03-06T21:50:05.111Z,18
2023-03-06T21:55:05.120Z,18
2023-03-06T22:00:05.110Z,17.8
2023-03-06T22:05:05.109Z,17.5
2023-03-06T22:10:05.105Z,17.5
2023-03-06T22:15:05.106Z,16.4
2023-03-06T22:20:05.109Z,17
2023-03-06T22:25:05.109Z,17
2023-03-06T22:30:05.102Z,17.5
2023-03-06T22:35:05.122Z,17
2023-03-06T22:40:05.096Z,17.4
2023-03-06T22:45:05.128Z,17.6
2023-03-06T22:50:05.101Z,16.8
2023-03-06T22:55:05.099Z,16.8
2023-03-06T23:00:05.165Z,16.2
2023-03-06T23:05:05.162Z,16.7
2023-03-06T23:10:05.099Z,17.1
2023-03-06T23:15:05.097Z,16.8
2023-03-06T23:20:05.097Z,16.3
2023-03-06T23:25:05.102Z,16.3
2023-03-06T23:30:05.104Z,16.2
2023-03-06T23:35:05.097Z,16.7
2023-03-06T23:40:05.109Z,16.6
2023-03-06T23:45:05.107Z,17
2023-03-06T23:50:05.103Z,16.4
2023-03-06T23:55:05.107Z,16.4
